Airfield :
LOGIN :

Register | Disclaimer

   EN    FR    IT 

 










Legend :    VFR   Marginal VFR   IFR   Intensive IFR   Very Intensive IFR
Visi :
Ceiling :
>= 8 km
>= 3000ft
5 to 8 km
1000 to 3000 ft
1500m to 5 km
500 to 1000 ft
800 to 1500m
200 to 500 ft
< 800m
< 200 ft
Symbols :   Thunderstorms  Fog  Heavy snow  Heavy precipitations  Wind > 20 kt
SIGMETs :     Misc.  Thunderstorms  Icing  Turbulence  Mountain Waves  Volcanic Ashes






- Airport Elevation : 289 ft
- IATA code : ZAD


LDZD - Zadar

CURRENT METAR :
  • 281600Z 31018KT 9999 FEW040 22/07 Q1020 NOSIG

EXPIRED METARs :
  • 281530Z 31018KT 280V340 9999 SCT040 23/06 Q1020 NOSIG
  • 281500Z 30020KT 9999 SCT040 23/06 Q1020 BECMG 30010KT
  • 281430Z 32013KT 250V050 9999 FEW040 24/05 Q1020 NOSIG
  • 281400Z 29015KT 260V320 9999 FEW040 23/08 Q1020 NOSIG
  • 281330Z 28016KT 9999 FEW045 22/07 Q1021 NOSIG

TAF TAF LDZD
Valid from the 28 at 12:00 until the 29 at 12:00 UTC


281125Z 2812/2912 32012KT 9999 FEW050 TX23/2812Z TN12/2903Z
PROB30
TEMPO 2812/2818 VRB08KT
BECMG 2816/2818 01006KT
BECMG 2820/2822 04012KT
BECMG 2910/2912 32008KT



MET'MAP, your aeronautical weather chart ! - Copyright ORBIFLY December 2007 - Disclaimer

ORBIFLY MET'MAP TEAM :

Programming & Development : Alexandra Zaïnal
Concept & original design : Baudouin d'Aumeries
Assistance for programming : Marc-Olivier Méhu
Technical & hardware support : Manuel Goepfert

Contact : metmap@orbifly.com




SOURCES & CREDITS :

   NOAA